Time;durP1;ratioP1;P1;durP2;ratioP2;P2;SDS_P1;SDS_P2;PMS_P1;PMS_P2;Temp;Humidity;BMP_temperature;BMP_pressure;BME280_temperature;BME280_humidity;BME280_pressure;Samples;Min_cycle;Max_cycle;Signal;HPM_P1;HPM_P2
2021/05/11 00:00:08;;;;;;;0.88;0.20;;;13.40;99.90;13.10;98878.00;;;;341238;28;87297;-92
2021/05/11 00:00:20;;;;;;;0.70;0.20;;;13.40;99.90;13.10;98876.00;;;;340236;28;83806;-93
2021/05/11 00:00:32;;;;;;;0.70;0.20;;;13.40;99.90;13.10;98875.00;;;;343960;28;88007;-92
2021/05/11 00:00:43;;;;;;;0.90;0.20;;;13.40;99.90;13.10;98881.00;;;;343706;28;85059;-93
2021/05/11 00:00:55;;;;;;;1.20;0.20;;;13.40;99.90;13.10;98881.00;;;;344128;28;87215;-93
2021/05/11 00:01:06;;;;;;;0.73;0.15;;;13.40;99.90;13.10;98881.00;;;;342737;28;82405;-93
2021/05/11 00:01:18;;;;;;;0.93;0.20;;;13.30;99.90;13.10;98873.00;;;;344081;28;86238;-92
2021/05/11 00:01:29;;;;;;;0.65;0.20;;;13.40;99.90;13.00;98880.00;;;;342701;28;84170;-93
2021/05/11 00:01:41;;;;;;;1.42;0.30;;;13.40;99.90;13.10;98881.00;;;;343806;28;86880;-93
2021/05/11 00:01:52;;;;;;;1.60;0.22;;;13.30;99.90;13.30;98887.00;;;;342698;28;84472;-93
2021/05/11 00:02:04;;;;;;;1.48;0.20;;;13.30;99.90;13.30;98877.00;;;;342654;28;87819;-93
2021/05/11 00:02:16;;;;;;;1.23;0.30;;;13.30;99.90;13.20;98881.00;;;;344063;28;84195;-92
2021/05/11 00:02:28;;;;;;;0.93;0.40;;;13.30;99.90;13.00;98879.00;;;;345355;28;86203;-93
2021/05/11 00:02:39;;;;;;;1.67;0.30;;;13.30;99.90;12.90;98875.00;;;;345397;28;85039;-92
2021/05/11 00:02:51;;;;;;;1.50;0.30;;;13.30;99.90;12.80;98878.00;;;;342190;28;87040;-93
2021/05/11 00:03:03;;;;;;;0.98;0.17;;;13.30;99.90;12.80;98879.00;;;;342458;28;83763;-92
2021/05/11 00:03:14;;;;;;;1.10;0.20;;;13.20;99.90;12.80;98880.00;;;;342801;28;87995;-93
2021/05/11 00:03:25;;;;;;;0.88;0.20;;;13.20;99.90;12.80;98881.00;;;;341235;28;83638;-93
2021/05/11 00:03:37;;;;;;;0.70;0.20;;;13.20;99.90;13.00;98881.00;;;;342631;28;87084;-93
2021/05/11 00:03:49;;;;;;;0.57;0.20;;;13.20;99.90;13.10;98883.00;;;;342591;28;84342;-93
2021/05/11 00:04:00;;;;;;;0.35;0.13;;;13.20;99.90;13.00;98874.00;;;;344181;28;85556;-92
2021/05/11 00:04:12;;;;;;;0.47;0.10;;;13.20;99.90;13.00;98879.00;;;;341381;28;83677;-93
2021/05/11 00:04:23;;;;;;;0.80;0.10;;;13.20;99.90;13.00;98877.00;;;;343854;28;88018;-93
2021/05/11 00:04:35;;;;;;;0.77;0.17;;;13.20;99.90;13.00;98881.00;;;;342665;28;85268;-93
2021/05/11 00:04:46;;;;;;;0.60;0.10;;;13.20;99.90;13.10;98886.00;;;;342680;28;85379;-93
2021/05/11 00:04:58;;;;;;;0.55;0.10;;;13.20;99.90;13.10;98885.00;;;;341308;28;84996;-93
2021/05/11 00:05:10;;;;;;;0.55;0.10;;;13.20;99.90;13.10;98881.00;;;;342668;28;86541;-93
2021/05/11 00:05:21;;;;;;;0.75;0.15;;;13.20;99.90;13.00;98875.00;;;;342633;28;84965;-93
2021/05/11 00:05:33;;;;;;;0.70;0.10;;;13.20;99.90;13.00;98882.00;;;;342741;28;87720;-92
2021/05/11 00:05:44;;;;;;;0.73;0.15;;;13.20;99.90;13.10;98882.00;;;;342342;28;84464;-93
2021/05/11 00:05:56;;;;;;;0.30;0.10;;;13.20;99.90;13.20;98886.00;;;;342615;28;87322;-92
2021/05/11 00:06:07;;;;;;;0.25;0.10;;;13.20;99.90;13.30;98882.00;;;;342700;28;85208;-93
2021/05/11 00:06:18;;;;;;;0.20;0.10;;;13.20;99.90;13.30;98884.00;;;;342282;28;86644;-93
2021/05/11 00:06:30;;;;;;;0.30;0.10;;;13.20;99.90;13.30;98884.00;;;;342613;28;83630;-92
2021/05/11 00:06:41;;;;;;;0.22;0.10;;;13.20;99.90;13.30;98888.00;;;;343947;28;86870;-92
2021/05/11 00:06:54;;;;;;;0.20;0.10;;;13.20;99.90;13.20;98884.00;;;;343793;28;85154;-93
2021/05/11 00:07:05;;;;;;;0.20;0.10;;;13.20;99.90;13.20;98885.00;;;;341248;28;87889;-93
2021/05/11 00:07:17;;;;;;;0.20;0.10;;;13.20;99.90;13.20;98882.00;;;;342513;28;83490;-92
2021/05/11 00:07:28;;;;;;;0.98;0.10;;;13.20;99.90;13.30;98887.00;;;;341409;28;87088;-93
2021/05/11 00:07:39;;;;;;;1.10;0.10;;;13.20;99.90;13.30;98891.00;;;;344027;28;84345;-92
2021/05/11 00:07:51;;;;;;;1.00;0.10;;;13.20;99.90;13.30;98894.00;;;;342402;28;86905;-92
2021/05/11 00:08:03;;;;;;;0.28;0.10;;;13.20;99.90;13.30;98888.00;;;;344066;28;84952;-93
2021/05/11 00:08:14;;;;;;;0.10;0.00;;;13.20;99.90;13.30;98888.00;;;;341285;28;87835;-93
2021/05/11 00:08:25;;;;;;;0.22;0.10;;;13.20;99.90;13.40;98880.00;;;;344100;28;83901;-92
2021/05/11 00:08:37;;;;;;;0.30;0.10;;;13.30;99.90;13.30;98893.00;;;;341296;28;87617;-92
2021/05/11 00:08:49;;;;;;;0.30;0.10;;;13.20;99.90;13.40;98885.00;;;;344906;28;83547;-92
2021/05/11 00:09:00;;;;;;;0.25;0.10;;;13.30;99.90;13.40;98890.00;;;;341291;28;87071;-93
2021/05/11 00:09:12;;;;;;;0.30;0.10;;;13.30;99.90;13.30;98892.00;;;;340067;28;84481;-92
2021/05/11 00:09:25;;;;;;;0.30;0.10;;;13.30;99.90;13.50;98891.00;;;;344059;28;86540;-92
2021/05/11 00:09:36;;;;;;;0.17;0.10;;;13.30;99.90;13.50;98896.00;;;;345416;28;85069;-93
2021/05/11 00:09:47;;;;;;;0.20;0.10;;;13.30;99.90;13.50;98889.00;;;;343874;28;87396;-92
2021/05/11 00:09:59;;;;;;;0.20;0.05;;;13.30;99.90;13.60;98889.00;;;;344000;28;83408;-92
2021/05/11 00:10:11;;;;;;;0.30;0.10;;;13.30;99.90;13.50;98888.00;;;;343725;28;87227;-92
2021/05/11 00:10:23;;;;;;;0.48;0.10;;;13.30;99.90;13.60;98891.00;;;;341250;28;83815;-92
2021/05/11 00:10:35;;;;;;;0.40;0.10;;;13.40;99.90;13.60;98894.00;;;;341292;28;86817;-92
2021/05/11 00:10:46;;;;;;;0.47;0.10;;;13.30;99.90;13.70;98893.00;;;;342590;28;85077;-92
2021/05/11 00:10:58;;;;;;;0.32;0.10;;;13.40;99.90;13.70;98893.00;;;;344001;28;86993;-92
2021/05/11 00:11:09;;;;;;;0.25;0.10;;;13.40;99.90;13.70;98891.00;;;;342638;28;83791;-92
2021/05/11 00:11:21;;;;;;;0.08;0.05;;;13.40;99.90;13.60;98890.00;;;;342593;28;87762;-92
2021/05/11 00:11:33;;;;;;;0.08;0.00;;;13.40;99.90;13.40;98891.00;;;;342678;28;83999;-92
2021/05/11 00:11:45;;;;;;;0.25;0.03;;;13.40;99.90;13.40;98892.00;;;;344002;28;86927;-92
2021/05/11 00:11:56;;;;;;;0.60;0.10;;;13.40;99.90;13.50;98889.00;;;;342482;28;83550;-92
2021/05/11 00:12:08;;;;;;;0.45;0.10;;;13.40;99.90;13.50;98894.00;;;;344095;28;86871;-92
2021/05/11 00:12:19;;;;;;;0.20;0.10;;;13.40;99.90;13.50;98897.00;;;;341616;28;83648;-92
2021/05/11 00:12:31;;;;;;;0.30;0.10;;;13.50;99.90;13.50;98892.00;;;;342661;28;86808;-92
2021/05/11 00:12:42;;;;;;;0.55;0.10;;;13.40;99.90;13.50;98892.00;;;;341377;28;84422;-92
2021/05/11 00:12:54;;;;;;;0.50;0.10;;;13.40;99.90;13.60;98888.00;;;;341056;28;87692;-91
2021/05/11 00:13:05;;;;;;;0.57;0.10;;;13.40;99.90;13.60;98891.00;;;;342567;28;83941;-92
2021/05/11 00:13:16;;;;;;;0.63;0.10;;;13.50;99.90;13.60;98892.00;;;;343971;28;86800;-92
2021/05/11 00:13:28;;;;;;;0.85;0.20;;;13.50;99.90;13.60;98892.00;;;;341295;28;83776;-92
2021/05/11 00:13:39;;;;;;;0.63;0.10;;;13.40;99.90;13.60;98892.00;;;;343962;28;87922;-92
2021/05/11 00:13:51;;;;;;;0.63;0.10;;;13.50;99.90;13.60;98893.00;;;;343762;28;84776;-92
2021/05/11 00:14:05;;;;;;;0.73;0.10;;;13.50;99.90;13.60;98886.00;;;;344006;28;87620;-92
2021/05/11 00:14:16;;;;;;;0.70;0.10;;;13.50;99.90;13.60;98883.00;;;;342631;28;84929;-92
2021/05/11 00:14:27;;;;;;;0.40;0.10;;;13.50;99.90;13.60;98888.00;;;;342519;28;87123;-92
2021/05/11 00:14:39;;;;;;;0.40;0.10;;;13.50;99.90;13.60;98887.00;;;;344151;28;83920;-92
2021/05/11 00:14:50;;;;;;;0.35;0.10;;;13.50;99.90;13.50;98881.00;;;;343332;28;84968;-92
2021/05/11 00:15:03;;;;;;;0.22;0.10;;;13.50;99.90;13.60;98878.00;;;;342420;28;84900;-92
2021/05/11 00:15:15;;;;;;;0.20;0.10;;;13.50;99.90;13.60;98882.00;;;;343672;28;86894;-92
2021/05/11 00:15:27;;;;;;;0.30;0.10;;;13.50;99.90;13.60;98881.00;;;;341333;28;84955;-92
2021/05/11 00:15:38;;;;;;;0.30;0.08;;;13.50;99.90;13.70;98878.00;;;;342606;28;86873;-92
2021/05/11 00:15:50;;;;;;;0.60;0.10;;;13.50;99.90;13.60;98885.00;;;;341261;28;83830;-92
2021/05/11 00:16:01;;;;;;;0.50;0.10;;;13.50;99.90;13.60;98878.00;;;;341331;28;86623;-92
2021/05/11 00:16:13;;;;;;;0.70;0.10;;;13.50;99.90;13.70;98878.00;;;;341367;28;83394;-91
2021/05/11 00:16:24;;;;;;;0.65;0.10;;;13.60;99.90;13.70;98876.00;;;;343904;28;87489;-92
2021/05/11 00:16:36;;;;;;;0.75;0.10;;;13.50;99.90;13.60;98873.00;;;;341434;28;84782;-92
2021/05/11 00:16:48;;;;;;;0.50;0.10;;;13.60;99.90;13.70;98876.00;;;;341408;28;86417;-92
2021/05/11 00:17:00;;;;;;;0.85;0.10;;;13.60;99.90;13.70;98860.00;;;;343983;28;85197;-92
2021/05/11 00:17:12;;;;;;;0.68;0.10;;;13.60;99.90;13.80;98871.00;;;;344066;28;87852;-92
2021/05/11 00:17:23;;;;;;;0.73;0.20;;;13.60;99.90;13.80;98861.00;;;;345401;28;83592;-92
2021/05/11 00:17:35;;;;;;;0.80;0.20;;;13.60;99.90;13.80;98867.00;;;;345184;28;87966;-92
2021/05/11 00:17:47;;;;;;;0.80;0.15;;;13.60;99.90;13.70;98869.00;;;;342245;28;83918;-91
2021/05/11 00:17:58;;;;;;;0.70;0.20;;;13.60;99.90;13.60;98864.00;;;;342494;28;86361;-92
2021/05/11 00:18:10;;;;;;;0.57;0.10;;;13.60;99.90;13.60;98867.00;;;;343928;28;83951;-92
2021/05/11 00:18:21;;;;;;;0.40;0.10;;;13.60;99.90;13.60;98866.00;;;;342588;28;88439;-93
2021/05/11 00:18:34;;;;;;;0.43;0.10;;;13.60;99.90;13.80;98867.00;;;;344465;28;84511;-92
2021/05/11 00:18:45;;;;;;;0.73;0.20;;;13.60;99.90;13.80;98863.00;;;;343333;28;87140;-91
2021/05/11 00:18:58;;;;;;;0.90;0.17;;;13.60;99.90;13.90;98874.00;;;;345914;28;85192;-92
2021/05/11 00:19:11;;;;;;;0.68;0.10;;;13.60;99.90;13.70;98858.00;;;;344699;28;87243;-92
2021/05/11 00:19:23;;;;;;;0.38;0.10;;;13.60;99.90;13.70;98872.00;;;;344614;28;84687;-92
2021/05/11 00:19:35;;;;;;;0.60;0.13;;;13.60;99.90;13.70;98864.00;;;;341738;28;88352;-92
2021/05/11 00:19:46;;;;;;;0.70;0.17;;;13.60;99.90;13.70;98858.00;;;;341755;28;84893;-92
2021/05/11 00:19:59;;;;;;;0.60;0.10;;;13.60;99.90;13.60;98867.00;;;;343218;28;86314;-92
2021/05/11 00:20:12;;;;;;;0.40;0.13;;;13.60;99.90;13.80;98870.00;;;;343309;28;84026;-92
2021/05/11 00:20:24;;;;;;;0.45;0.10;;;13.60;99.90;13.70;98868.00;;;;344557;28;86566;-92
2021/05/11 00:20:35;;;;;;;0.50;0.10;;;13.70;99.90;13.70;98870.00;;;;343565;28;83622;-92
2021/05/11 00:20:47;;;;;;;1.52;0.20;;;13.60;99.90;13.60;98873.00;;;;344305;28;87090;-91
2021/05/11 00:20:59;;;;;;;1.50;0.20;;;13.60;99.90;13.60;98864.00;;;;343253;28;82403;-92
2021/05/11 00:21:10;;;;;;;0.70;0.13;;;13.60;99.90;13.70;98871.00;;;;341861;28;86592;-91
2021/05/11 00:21:22;;;;;;;0.40;0.10;;;13.60;99.90;13.70;98877.00;;;;342909;28;84184;-93
2021/05/11 00:21:33;;;;;;;0.47;0.10;;;13.60;99.90;13.70;98873.00;;;;343165;28;86050;-92
2021/05/11 00:21:45;;;;;;;0.32;0.10;;;13.60;99.90;13.60;98875.00;;;;343124;28;83682;-92
2021/05/11 00:21:56;;;;;;;0.30;0.10;;;13.60;99.90;13.60;98877.00;;;;345799;28;87686;-92
2021/05/11 00:22:07;;;;;;;0.28;0.15;;;13.60;99.90;13.60;98881.00;;;;343242;28;83427;-92
2021/05/11 00:22:19;;;;;;;0.40;0.20;;;13.60;99.90;13.70;98882.00;;;;341890;28;87864;-91
2021/05/11 00:22:30;;;;;;;0.40;0.20;;;13.60;99.90;13.80;98877.00;;;;343260;28;83888;-92
2021/05/11 00:22:42;;;;;;;0.40;0.13;;;13.70;99.90;13.70;98882.00;;;;343530;28;85695;-92
2021/05/11 00:22:53;;;;;;;0.57;0.10;;;13.70;99.90;13.60;98875.00;;;;342197;28;82428;-92
2021/05/11 00:23:04;;;;;;;0.50;0.10;;;13.60;99.90;13.60;98874.00;;;;343097;28;86906;-93
2021/05/11 00:23:16;;;;;;;0.20;0.05;;;13.60;99.90;13.60;98875.00;;;;341888;28;84127;-91
2021/05/11 00:23:27;;;;;;;0.30;0.10;;;13.60;99.90;13.70;98879.00;;;;344554;28;85431;-92
2021/05/11 00:23:39;;;;;;;0.30;0.10;;;13.60;99.90;13.70;98877.00;;;;343187;28;83740;-92
2021/05/11 00:23:50;;;;;;;0.30;0.10;;;13.60;99.90;13.80;98881.00;;;;342633;28;87046;-93
2021/05/11 00:24:02;;;;;;;0.30;0.10;;;13.60;99.90;13.80;98875.00;;;;343810;28;83872;-92
2021/05/11 00:24:16;;;;;;;0.30;0.10;;;13.60;99.90;13.70;98876.00;;;;343039;28;87026;-92
2021/05/11 00:24:27;;;;;;;0.40;0.10;;;13.70;99.90;13.70;98882.00;;;;344515;28;82417;-92
2021/05/11 00:24:38;;;;;;;0.50;0.10;;;13.60;99.90;13.60;98878.00;;;;344457;28;86884;-92
2021/05/11 00:24:50;;;;;;;0.60;0.20;;;13.60;99.90;13.70;98879.00;;;;343917;28;82464;-91
2021/05/11 00:25:01;;;;;;;0.40;0.20;;;13.60;99.90;13.70;98880.00;;;;343131;28;88139;-92
2021/05/11 00:25:13;;;;;;;0.65;0.20;;;13.60;99.90;13.70;98883.00;;;;340524;28;83880;-91
2021/05/11 00:25:25;;;;;;;0.70;0.20;;;13.70;99.90;13.70;98877.00;;;;344635;28;88290;-91
2021/05/11 00:25:36;;;;;;;0.68;0.10;;;13.70;99.90;13.80;98883.00;;;;341968;28;84196;-93
2021/05/11 00:25:48;;;;;;;0.30;0.10;;;13.70;99.90;13.80;98879.00;;;;345928;28;86740;-92
2021/05/11 00:25:59;;;;;;;0.40;0.10;;;13.70;99.90;13.80;98881.00;;;;341929;28;84026;-92
2021/05/11 00:26:11;;;;;;;0.50;0.10;;;13.70;99.90;13.60;98880.00;;;;345660;28;86930;-93
2021/05/11 00:26:22;;;;;;;0.68;0.20;;;13.70;99.90;13.70;98880.00;;;;343352;28;84072;-92
2021/05/11 00:26:37;;;;;;;0.70;0.10;;;13.70;99.90;13.80;98871.00;;;;344327;28;85721;-92
2021/05/11 00:26:49;;;;;;;0.65;0.10;;;13.70;99.90;13.80;98879.00;;;;341740;28;84275;-92
2021/05/11 00:27:01;;;;;;;0.55;0.17;;;13.70;99.90;13.80;98881.00;;;;341510;28;86597;-93
2021/05/11 00:27:13;;;;;;;0.50;0.17;;;13.70;99.90;13.80;98885.00;;;;341452;28;84012;-93
2021/05/11 00:27:24;;;;;;;0.50;0.20;;;13.70;99.90;13.90;98884.00;;;;343047;28;87227;-92
2021/05/11 00:27:41;;;;;;;1.05;0.30;;;13.70;99.90;13.90;98886.00;;;;340353;28;83400;-93
2021/05/11 00:27:52;;;;;;;1.10;0.30;;;13.70;99.90;13.90;98887.00;;;;343029;28;87705;-92
2021/05/11 00:28:04;;;;;;;0.90;0.20;;;13.80;99.90;14.00;98893.00;;;;339146;28;83455;-93
2021/05/11 00:28:16;;;;;;;0.63;0.10;;;13.80;99.90;14.00;98892.00;;;;343036;28;87175;-93
2021/05/11 00:28:27;;;;;;;0.60;0.10;;;13.80;99.90;13.80;98891.00;;;;341744;28;84266;-93
2021/05/11 00:28:38;;;;;;;0.50;0.10;;;13.80;99.90;13.80;98873.00;;;;343027;28;87929;-92
2021/05/11 00:28:50;;;;;;;0.60;0.10;;;13.70;99.90;13.90;98886.00;;;;341740;28;84967;-92
2021/05/11 00:29:01;;;;;;;0.70;0.10;;;13.80;99.90;13.90;98893.00;;;;343046;28;87003;-92
2021/05/11 00:29:13;;;;;;;1.17;0.20;;;13.80;99.90;13.80;98886.00;;;;344383;28;83525;-92
2021/05/11 00:29:24;;;;;;;1.05;0.20;;;13.80;99.90;13.80;98887.00;;;;340402;28;86426;-93
2021/05/11 00:29:35;;;;;;;0.75;0.17;;;13.80;99.90;13.70;98881.00;;;;340401;28;85039;-94
2021/05/11 00:29:47;;;;;;;0.50;0.20;;;13.80;99.90;13.70;98889.00;;;;341197;28;87807;-93
2021/05/11 00:29:58;;;;;;;0.30;0.10;;;13.80;99.90;13.70;98881.00;;;;342919;28;83606;-92
2021/05/11 00:30:10;;;;;;;0.40;0.10;;;13.80;99.90;13.70;98890.00;;;;342930;28;86138;-92
2021/05/11 00:30:22;;;;;;;0.40;0.20;;;13.80;99.90;13.80;98882.00;;;;341575;28;84022;-92
2021/05/11 00:30:33;;;;;;;0.22;0.10;;;13.80;99.90;13.80;98886.00;;;;340378;28;87749;-92
2021/05/11 00:30:45;;;;;;;0.17;0.10;;;13.80;99.90;13.70;98877.00;;;;341695;28;84716;-92
2021/05/11 00:30:56;;;;;;;0.17;0.10;;;13.80;99.90;13.70;98880.00;;;;344502;28;87045;-93
2021/05/11 00:31:07;;;;;;;0.30;0.10;;;13.80;99.90;13.70;98884.00;;;;341605;28;84897;-93
2021/05/11 00:31:21;;;;;;;1.25;0.10;;;13.70;99.90;13.80;98878.00;;;;340425;28;87891;-92
2021/05/11 00:31:33;;;;;;;1.20;0.10;;;13.80;99.90;13.80;98876.00;;;;343112;28;83554;-92
2021/05/11 00:31:44;;;;;;;0.98;0.10;;;13.80;99.90;13.80;98879.00;;;;340327;28;88002;-93
2021/05/11 00:31:56;;;;;;;0.70;0.10;;;13.80;99.90;13.70;98883.00;;;;343157;28;85044;-93
2021/05/11 00:32:07;;;;;;;0.93;0.20;;;13.80;99.90;13.70;98878.00;;;;340280;28;87956;-92
2021/05/11 00:32:19;;;;;;;1.00;0.20;;;13.80;99.90;13.80;98875.00;;;;345973;28;83346;-93
2021/05/11 00:32:30;;;;;;;0.70;0.20;;;13.80;99.90;13.80;98871.00;;;;343087;28;86961;-92
2021/05/11 00:32:42;;;;;;;0.70;0.20;;;13.80;99.90;13.90;98876.00;;;;341788;28;84810;-93
2021/05/11 00:32:53;;;;;;;0.73;0.20;;;13.80;99.90;13.80;98872.00;;;;341887;28;88411;-92
2021/05/11 00:33:05;;;;;;;0.63;0.22;;;13.80;99.90;13.80;98870.00;;;;340292;28;85124;-92
2021/05/11 00:33:17;;;;;;;1.20;0.20;;;13.80;99.90;13.80;98875.00;;;;342134;28;87876;-93
2021/05/11 00:33:28;;;;;;;1.25;0.10;;;13.80;99.90;13.80;98875.00;;;;342775;28;83630;-92
2021/05/11 00:33:39;;;;;;;1.17;0.10;;;13.80;99.90;13.80;98874.00;;;;342960;28;86585;-92
2021/05/11 00:33:52;;;;;;;0.32;0.10;;;13.80;99.90;13.80;98875.00;;;;342826;28;83620;-92
2021/05/11 00:34:04;;;;;;;0.50;0.17;;;13.80;99.90;13.80;98868.00;;;;341591;28;88698;-92
2021/05/11 00:34:15;;;;;;;0.55;0.20;;;13.80;99.90;13.80;98875.00;;;;343091;28;83437;-92
2021/05/11 00:34:26;;;;;;;0.57;0.17;;;13.80;99.90;13.80;98868.00;;;;341733;28;86164;-92
2021/05/11 00:34:38;;;;;;;0.60;0.10;;;13.80;99.90;13.90;98865.00;;;;343109;28;85313;-92
2021/05/11 00:34:49;;;;;;;0.70;0.17;;;13.80;99.90;13.90;98870.00;;;;343260;28;84089;-92
2021/05/11 00:35:01;;;;;;;0.55;0.20;;;13.80;99.90;13.90;98876.00;;;;344406;28;83466;-92
2021/05/11 00:35:12;;;;;;;0.60;0.20;;;13.80;99.90;13.80;98866.00;;;;342881;28;86698;-92
2021/05/11 00:35:24;;;;;;;0.45;0.10;;;13.80;99.90;14.00;98872.00;;;;340492;28;84501;-92
2021/05/11 00:35:35;;;;;;;0.40;0.10;;;13.80;99.90;14.00;98867.00;;;;341790;28;87419;-92
2021/05/11 00:35:47;;;;;;;0.50;0.10;;;13.80;99.90;14.00;98873.00;;;;342675;28;82686;-93
2021/05/11 00:35:58;;;;;;;0.50;0.20;;;13.80;99.90;13.90;98873.00;;;;341585;28;87813;-92
2021/05/11 00:36:10;;;;;;;0.68;0.13;;;13.80;99.90;13.90;98870.00;;;;343031;28;83928;-91
2021/05/11 00:36:21;;;;;;;0.88;0.20;;;13.80;99.90;14.00;98867.00;;;;344337;28;86477;-92
2021/05/11 00:36:33;;;;;;;0.77;0.20;;;13.80;99.90;14.10;98869.00;;;;341772;28;83733;-92
2021/05/11 00:36:44;;;;;;;0.47;0.10;;;13.80;99.90;14.20;98869.00;;;;344300;28;85784;-92
2021/05/11 00:36:56;;;;;;;0.47;0.10;;;13.90;99.90;14.20;98868.00;;;;341876;28;83871;-92
2021/05/11 00:37:08;;;;;;;1.10;0.20;;;13.90;99.90;14.30;98869.00;;;;345776;28;86922;-92
2021/05/11 00:37:19;;;;;;;1.10;0.20;;;13.90;99.90;14.20;98864.00;;;;343107;28;83495;-93
2021/05/11 00:37:31;;;;;;;0.43;0.20;;;13.90;99.90;14.20;98866.00;;;;344173;28;86817;-92
2021/05/11 00:37:42;;;;;;;0.55;0.30;;;14.00;99.90;14.10;98869.00;;;;343155;28;83405;-92
2021/05/11 00:37:53;;;;;;;0.80;0.30;;;14.00;99.90;14.10;98864.00;;;;343039;28;88038;-92
2021/05/11 00:38:05;;;;;;;0.70;0.10;;;13.90;99.90;14.10;98871.00;;;;343103;28;84671;-92
2021/05/11 00:38:16;;;;;;;0.55;0.10;;;14.00;99.90;14.00;98865.00;;;;340308;28;87215;-92
2021/05/11 00:38:28;;;;;;;0.60;0.10;;;14.00;99.90;14.00;98867.00;;;;344462;28;83617;-92
2021/05/11 00:38:39;;;;;;;0.52;0.20;;;13.90;99.90;14.00;98869.00;;;;343090;28;88007;-91
2021/05/11 00:38:51;;;;;;;0.70;0.20;;;13.90;99.90;14.00;98872.00;;;;343968;28;83967;-92
2021/05/11 00:39:04;;;;;;;0.73;0.10;;;13.90;99.90;14.00;98867.00;;;;342887;28;86368;-92
2021/05/11 00:39:15;;;;;;;0.85;0.20;;;13.90;99.90;14.00;98868.00;;;;340260;28;84843;-92
2021/05/11 00:39:26;;;;;;;0.60;0.20;;;13.90;99.90;13.90;98873.00;;;;341734;28;87169;-92
2021/05/11 00:39:38;;;;;;;0.98;0.30;;;13.90;99.90;14.00;98872.00;;;;345706;28;84059;-92
2021/05/11 00:39:49;;;;;;;0.80;0.30;;;13.90;99.90;14.00;98871.00;;;;342879;28;87994;-92
2021/05/11 00:40:01;;;;;;;0.65;0.17;;;13.90;99.90;14.00;98870.00;;;;344526;28;84254;-92
2021/05/11 00:40:13;;;;;;;0.40;0.10;;;13.90;99.90;14.00;98874.00;;;;344527;28;86572;-92
2021/05/11 00:40:24;;;;;;;0.50;0.10;;;13.90;99.90;14.10;98868.00;;;;342819;28;85114;-92
2021/05/11 00:40:36;;;;;;;0.50;0.20;;;13.90;99.90;14.10;98874.00;;;;340278;28;87706;-92
2021/05/11 00:40:47;;;;;;;0.43;0.13;;;14.00;99.90;14.00;98870.00;;;;341751;28;83682;-92
2021/05/11 00:40:59;;;;;;;0.47;0.10;;;13.90;99.90;14.00;98868.00;;;;340321;28;87949;-92
2021/05/11 00:41:10;;;;;;;0.40;0.10;;;13.90;99.90;14.00;98872.00;;;;343037;28;84343;-92
2021/05/11 00:41:22;;;;;;;0.47;0.10;;;13.90;99.90;14.00;98869.00;;;;341715;28;87549;-92
2021/05/11 00:41:34;;;;;;;0.60;0.17;;;13.90;99.90;13.90;98870.00;;;;340487;28;83959;-92
2021/05/11 00:41:45;;;;;;;0.55;0.20;;;13.90;99.90;13.90;98867.00;;;;341307;28;86715;-92
2021/05/11 00:41:57;;;;;;;0.60;0.20;;;13.90;99.90;13.80;98864.00;;;;341775;28;84704;-92
2021/05/11 00:42:09;;;;;;;0.70;0.20;;;13.90;99.90;13.90;98866.00;;;;339147;28;84149;-92
2021/05/11 00:42:20;;;;;;;1.17;0.10;;;13.90;99.90;13.80;98856.00;;;;342856;28;83529;-92
2021/05/11 00:42:32;;;;;;;1.60;0.10;;;13.90;99.90;13.80;98859.00;;;;339045;28;86638;-92
2021/05/11 00:42:43;;;;;;;1.55;0.17;;;13.90;99.90;13.80;98859.00;;;;340408;28;84980;-93
2021/05/11 00:42:55;;;;;;;1.10;0.20;;;13.90;99.90;13.90;98859.00;;;;341715;28;87800;-92
2021/05/11 00:43:07;;;;;;;0.60;0.20;;;13.90;99.90;13.90;98857.00;;;;341705;28;85296;-92
2021/05/11 00:43:18;;;;;;;0.50;0.20;;;13.90;99.90;14.00;98855.00;;;;344464;28;87385;-92
2021/05/11 00:43:30;;;;;;;0.70;0.10;;;13.90;99.90;14.00;98853.00;;;;338855;28;83447;-92
2021/05/11 00:43:45;;;;;;;0.95;0.15;;;13.90;99.90;13.80;98854.00;;;;342790;28;85965;-92
2021/05/11 00:43:56;;;;;;;0.98;0.20;;;13.90;99.90;13.80;98858.00;;;;341779;28;84159;-92
2021/05/11 00:44:25;;;;;;;1.20;0.20;;;13.80;99.90;13.90;98851.00;;;;343104;28;87602;-92
2021/05/11 00:44:36;;;;;;;0.40;0.10;;;13.80;99.90;13.90;98847.00;;;;344476;28;84706;-92
2021/05/11 00:44:48;;;;;;;0.25;0.10;;;13.80;99.90;13.80;98849.00;;;;342714;28;83935;-92
2021/05/11 00:44:59;;;;;;;0.40;0.20;;;13.80;99.90;13.70;98842.00;;;;340808;28;82402;-92
2021/05/11 00:45:11;;;;;;;0.25;0.20;;;13.80;99.90;13.60;98849.00;;;;344400;28;86629;-91
2021/05/11 00:45:22;;;;;;;0.32;0.20;;;13.80;99.90;13.60;98854.00;;;;341708;28;84477;-92
2021/05/11 00:45:34;;;;;;;0.50;0.10;;;13.80;99.90;13.50;98843.00;;;;340427;28;86709;-92
2021/05/11 00:45:45;;;;;;;0.60;0.10;;;13.80;99.90;13.60;98843.00;;;;343011;28;84435;-92
2021/05/11 00:45:59;;;;;;;0.68;0.17;;;13.80;99.90;13.60;98840.00;;;;339031;28;87953;-92
2021/05/11 00:46:12;;;;;;;0.70;0.20;;;13.80;99.90;13.60;98842.00;;;;341824;28;83536;-92
2021/05/11 00:46:26;;;;;;;0.57;0.20;;;13.70;99.90;13.40;98834.00;;;;341559;28;88080;-92
2021/05/11 00:46:41;;;;;;;0.35;0.10;;;13.70;99.90;13.30;98838.00;;;;343028;28;84370;-91
2021/05/11 00:47:00;;;;;;;0.40;0.10;;;13.70;99.90;13.30;98843.00;;;;341439;28;87777;-91
2021/05/11 00:47:12;;;;;;;0.20;0.10;;;13.70;99.90;13.40;98837.00;;;;341784;28;85363;-92
2021/05/11 00:47:24;;;;;;;0.28;0.10;;;13.60;99.90;13.40;98830.00;;;;341567;28;87003;-92
2021/05/11 00:47:36;;;;;;;0.30;0.10;;;13.60;99.90;13.40;98836.00;;;;340411;28;84861;-92
2021/05/11 00:47:47;;;;;;;0.30;0.20;;;13.60;99.90;13.40;98831.00;;;;340916;28;88229;-91
2021/05/11 00:47:59;;;;;;;0.32;0.20;;;13.60;99.90;13.50;98826.00;;;;339309;28;85068;-91
2021/05/11 00:48:11;;;;;;;0.30;0.10;;;13.60;99.90;13.60;98829.00;;;;341701;28;86733;-92
2021/05/11 00:48:23;;;;;;;0.38;0.10;;;13.60;99.90;13.60;98834.00;;;;340296;28;84006;-91
2021/05/11 00:48:36;;;;;;;0.20;0.10;;;13.60;99.90;13.60;98831.00;;;;340452;28;88102;-91
2021/05/11 00:48:47;;;;;;;0.60;0.10;;;13.60;99.90;13.60;98833.00;;;;341744;28;83849;-92
2021/05/11 00:48:59;;;;;;;1.00;0.10;;;13.60;99.90;13.70;98839.00;;;;343094;28;87393;-91
2021/05/11 00:49:10;;;;;;;1.10;0.10;;;13.60;99.90;13.70;98837.00;;;;340305;28;83535;-91
2021/05/11 00:49:22;;;;;;;0.68;0.10;;;13.60;99.90;13.70;98835.00;;;;342898;28;85440;-91
2021/05/11 00:49:35;;;;;;;0.40;0.10;;;13.60;99.90;13.70;98834.00;;;;344457;28;85134;-91
2021/05/11 00:49:48;;;;;;;0.38;0.10;;;13.60;99.90;13.80;98838.00;;;;341593;28;88817;-91
2021/05/11 00:50:00;;;;;;;0.30;0.10;;;13.60;99.90;13.80;98832.00;;;;343178;28;83877;-91
2021/05/11 00:50:12;;;;;;;0.40;0.10;;;13.60;99.90;13.90;98836.00;;;;341749;28;86877;-92
2021/05/11 00:50:23;;;;;;;0.57;0.10;;;13.70;99.90;13.90;98841.00;;;;339190;28;84887;-91
2021/05/11 00:50:35;;;;;;;0.60;0.10;;;13.70;99.90;13.90;98836.00;;;;340636;28;86952;-91
2021/05/11 00:50:47;;;;;;;0.52;0.10;;;13.70;99.90;13.90;98833.00;;;;340476;28;83600;-90
2021/05/11 00:50:58;;;;;;;0.35;0.10;;;13.70;99.90;13.80;98828.00;;;;340712;28;88034;-92
2021/05/11 00:51:10;;;;;;;0.30;0.10;;;13.70;99.90;13.90;98836.00;;;;339389;28;85265;-91
2021/05/11 00:51:21;;;;;;;0.38;0.10;;;13.70;99.90;13.90;98841.00;;;;343197;28;87984;-92
2021/05/11 00:51:33;;;;;;;0.47;0.10;;;13.70;99.90;13.80;98833.00;;;;340851;28;85264;-91
2021/05/11 00:51:44;;;;;;;0.50;0.10;;;13.70;99.90;13.80;98827.00;;;;340719;28;87151;-91
2021/05/11 00:51:57;;;;;;;0.30;0.10;;;13.70;99.90;13.80;98826.00;;;;343390;28;84564;-91
2021/05/11 00:52:08;;;;;;;0.57;0.10;;;13.70;99.90;13.80;98829.00;;;;342173;28;87146;-91
2021/05/11 00:52:20;;;;;;;0.70;0.13;;;13.70;99.90;13.70;98829.00;;;;343512;28;85036;-91
2021/05/11 00:52:31;;;;;;;0.60;0.20;;;13.70;99.90;13.80;98833.00;;;;341974;28;86681;-89
2021/05/11 00:52:43;;;;;;;0.85;0.25;;;13.70;99.90;13.80;98833.00;;;;339582;28;84829;-91
2021/05/11 00:52:54;;;;;;;0.85;0.20;;;13.70;99.90;13.80;98833.00;;;;340731;28;88144;-91
2021/05/11 00:53:06;;;;;;;0.68;0.20;;;13.70;99.90;13.80;98832.00;;;;339349;28;83778;-91